sensor_id;sensor_type;location;lat;lon;timestamp;P1;durP1;ratioP1;P2;durP2;ratioP2
41677;SDS011;27364;49.026;8.712;2023-04-19T00:00:16;17.98;;;14.70;;
41677;SDS011;27364;49.026;8.712;2023-04-19T00:02:43;17.25;;;13.32;;
41677;SDS011;27364;49.026;8.712;2023-04-19T00:05:08;17.23;;;14.15;;
41677;SDS011;27364;49.026;8.712;2023-04-19T00:07:35;20.33;;;13.87;;
41677;SDS011;27364;49.026;8.712;2023-04-19T00:10:01;18.98;;;14.23;;
41677;SDS011;27364;49.026;8.712;2023-04-19T00:12:27;18.20;;;13.90;;
41677;SDS011;27364;49.026;8.712;2023-04-19T00:14:52;17.80;;;13.30;;
41677;SDS011;27364;49.026;8.712;2023-04-19T00:17:18;16.65;;;13.07;;
41677;SDS011;27364;49.026;8.712;2023-04-19T00:19:44;18.05;;;13.90;;
41677;SDS011;27364;49.026;8.712;2023-04-19T00:22:09;16.50;;;13.70;;
41677;SDS011;27364;49.026;8.712;2023-04-19T00:24:35;17.23;;;13.82;;
41677;SDS011;27364;49.026;8.712;2023-04-19T00:27:01;18.98;;;13.88;;
41677;SDS011;27364;49.026;8.712;2023-04-19T00:29:27;16.83;;;13.38;;
41677;SDS011;27364;49.026;8.712;2023-04-19T00:31:52;16.23;;;12.98;;
41677;SDS011;27364;49.026;8.712;2023-04-19T00:34:18;17.13;;;13.23;;
41677;SDS011;27364;49.026;8.712;2023-04-19T00:36:43;17.05;;;12.95;;
41677;SDS011;27364;49.026;8.712;2023-04-19T00:39:08;18.08;;;14.18;;
41677;SDS011;27364;49.026;8.712;2023-04-19T00:41:34;17.48;;;14.10;;
41677;SDS011;27364;49.026;8.712;2023-04-19T00:43:59;17.48;;;13.57;;
41677;SDS011;27364;49.026;8.712;2023-04-19T00:46:25;19.88;;;13.30;;
41677;SDS011;27364;49.026;8.712;2023-04-19T00:48:51;16.95;;;13.40;;
41677;SDS011;27364;49.026;8.712;2023-04-19T00:51:17;17.88;;;13.35;;
41677;SDS011;27364;49.026;8.712;2023-04-19T00:53:44;18.05;;;13.77;;
41677;SDS011;27364;49.026;8.712;2023-04-19T00:56:10;19.10;;;13.93;;
41677;SDS011;27364;49.026;8.712;2023-04-19T00:58:37;18.10;;;14.10;;
41677;SDS011;27364;49.026;8.712;2023-04-19T01:01:03;18.02;;;14.68;;
41677;SDS011;27364;49.026;8.712;2023-04-19T01:03:30;19.10;;;14.65;;
41677;SDS011;27364;49.026;8.712;2023-04-19T01:05:55;17.83;;;14.32;;
41677;SDS011;27364;49.026;8.712;2023-04-19T01:08:22;17.38;;;13.98;;
41677;SDS011;27364;49.026;8.712;2023-04-19T01:10:48;19.40;;;15.18;;
41677;SDS011;27364;49.026;8.712;2023-04-19T01:13:13;17.80;;;14.40;;
41677;SDS011;27364;49.026;8.712;2023-04-19T01:15:39;18.25;;;15.40;;
41677;SDS011;27364;49.026;8.712;2023-04-19T01:18:04;19.17;;;14.75;;
41677;SDS011;27364;49.026;8.712;2023-04-19T01:20:30;20.35;;;15.13;;
41677;SDS011;27364;49.026;8.712;2023-04-19T01:22:56;17.83;;;14.23;;
41677;SDS011;27364;49.026;8.712;2023-04-19T01:25:21;20.00;;;14.57;;
41677;SDS011;27364;49.026;8.712;2023-04-19T01:27:47;17.63;;;14.75;;
41677;SDS011;27364;49.026;8.712;2023-04-19T01:30:12;17.00;;;14.20;;
41677;SDS011;27364;49.026;8.712;2023-04-19T01:32:38;18.85;;;14.32;;
41677;SDS011;27364;49.026;8.712;2023-04-19T01:35:04;19.27;;;14.85;;
41677;SDS011;27364;49.026;8.712;2023-04-19T01:37:30;19.75;;;14.82;;
41677;SDS011;27364;49.026;8.712;2023-04-19T01:39:58;17.30;;;14.45;;
41677;SDS011;27364;49.026;8.712;2023-04-19T01:42:24;18.05;;;14.50;;
41677;SDS011;27364;49.026;8.712;2023-04-19T01:44:50;18.50;;;14.80;;
41677;SDS011;27364;49.026;8.712;2023-04-19T01:47:16;18.55;;;13.82;;
41677;SDS011;27364;49.026;8.712;2023-04-19T01:49:41;18.40;;;15.02;;
41677;SDS011;27364;49.026;8.712;2023-04-19T01:52:07;18.30;;;14.60;;
41677;SDS011;27364;49.026;8.712;2023-04-19T01:54:32;18.98;;;14.95;;
41677;SDS011;27364;49.026;8.712;2023-04-19T01:56:58;19.35;;;15.05;;
41677;SDS011;27364;49.026;8.712;2023-04-19T01:59:23;21.42;;;14.77;;
41677;SDS011;27364;49.026;8.712;2023-04-19T02:01:49;18.58;;;14.52;;
41677;SDS011;27364;49.026;8.712;2023-04-19T02:04:14;19.15;;;15.05;;
41677;SDS011;27364;49.026;8.712;2023-04-19T02:06:40;19.58;;;14.75;;
41677;SDS011;27364;49.026;8.712;2023-04-19T02:09:05;18.92;;;15.45;;
41677;SDS011;27364;49.026;8.712;2023-04-19T02:11:31;19.35;;;14.77;;
41677;SDS011;27364;49.026;8.712;2023-04-19T02:13:56;21.00;;;15.85;;
41677;SDS011;27364;49.026;8.712;2023-04-19T02:16:22;19.63;;;14.80;;
41677;SDS011;27364;49.026;8.712;2023-04-19T02:18:47;20.65;;;15.65;;
41677;SDS011;27364;49.026;8.712;2023-04-19T02:21:13;20.35;;;15.45;;
41677;SDS011;27364;49.026;8.712;2023-04-19T02:23:38;19.95;;;15.07;;
41677;SDS011;27364;49.026;8.712;2023-04-19T02:26:04;20.13;;;16.02;;
41677;SDS011;27364;49.026;8.712;2023-04-19T02:28:30;18.85;;;14.90;;
41677;SDS011;27364;49.026;8.712;2023-04-19T02:30:56;18.77;;;15.15;;
41677;SDS011;27364;49.026;8.712;2023-04-19T02:33:23;19.27;;;15.18;;
41677;SDS011;27364;49.026;8.712;2023-04-19T02:35:50;19.65;;;14.75;;
41677;SDS011;27364;49.026;8.712;2023-04-19T02:38:16;19.52;;;14.70;;
41677;SDS011;27364;49.026;8.712;2023-04-19T02:40:42;18.60;;;14.93;;
41677;SDS011;27364;49.026;8.712;2023-04-19T02:43:07;20.75;;;15.60;;
41677;SDS011;27364;49.026;8.712;2023-04-19T02:45:33;18.85;;;14.68;;
41677;SDS011;27364;49.026;8.712;2023-04-19T02:47:59;19.98;;;14.90;;
41677;SDS011;27364;49.026;8.712;2023-04-19T02:50:25;20.23;;;15.23;;
41677;SDS011;27364;49.026;8.712;2023-04-19T02:52:51;19.98;;;14.82;;
41677;SDS011;27364;49.026;8.712;2023-04-19T02:55:17;18.27;;;14.73;;
41677;SDS011;27364;49.026;8.712;2023-04-19T02:57:43;19.45;;;14.95;;
41677;SDS011;27364;49.026;8.712;2023-04-19T03:00:08;19.33;;;15.10;;
41677;SDS011;27364;49.026;8.712;2023-04-19T03:02:34;19.05;;;14.93;;
41677;SDS011;27364;49.026;8.712;2023-04-19T03:05:00;17.75;;;13.70;;
41677;SDS011;27364;49.026;8.712;2023-04-19T03:07:26;18.02;;;14.45;;
41677;SDS011;27364;49.026;8.712;2023-04-19T03:09:52;18.20;;;14.25;;
41677;SDS011;27364;49.026;8.712;2023-04-19T03:12:17;19.30;;;14.55;;
41677;SDS011;27364;49.026;8.712;2023-04-19T03:14:43;18.30;;;14.18;;
41677;SDS011;27364;49.026;8.712;2023-04-19T03:17:08;18.27;;;14.23;;
41677;SDS011;27364;49.026;8.712;2023-04-19T03:19:34;17.98;;;14.43;;
41677;SDS011;27364;49.026;8.712;2023-04-19T03:21:59;18.67;;;14.45;;
41677;SDS011;27364;49.026;8.712;2023-04-19T03:24:28;21.00;;;14.30;;
41677;SDS011;27364;49.026;8.712;2023-04-19T03:26:55;17.35;;;13.50;;
41677;SDS011;27364;49.026;8.712;2023-04-19T03:29:21;19.33;;;14.00;;
41677;SDS011;27364;49.026;8.712;2023-04-19T03:31:46;17.63;;;14.18;;
41677;SDS011;27364;49.026;8.712;2023-04-19T03:34:12;16.80;;;13.40;;
41677;SDS011;27364;49.026;8.712;2023-04-19T03:36:38;17.52;;;13.55;;
41677;SDS011;27364;49.026;8.712;2023-04-19T03:39:04;18.52;;;13.93;;
41677;SDS011;27364;49.026;8.712;2023-04-19T03:41:30;18.45;;;14.15;;
41677;SDS011;27364;49.026;8.712;2023-04-19T03:43:55;17.20;;;13.63;;
41677;SDS011;27364;49.026;8.712;2023-04-19T03:46:22;17.60;;;13.30;;
41677;SDS011;27364;49.026;8.712;2023-04-19T03:48:48;17.15;;;13.00;;
41677;SDS011;27364;49.026;8.712;2023-04-19T03:51:13;16.85;;;13.45;;
41677;SDS011;27364;49.026;8.712;2023-04-19T03:53:40;16.20;;;13.18;;
41677;SDS011;27364;49.026;8.712;2023-04-19T03:56:06;15.75;;;12.70;;
41677;SDS011;27364;49.026;8.712;2023-04-19T03:58:31;16.02;;;12.38;;
41677;SDS011;27364;49.026;8.712;2023-04-19T04:01:00;16.35;;;13.45;;
41677;SDS011;27364;49.026;8.712;2023-04-19T04:03:26;16.10;;;12.63;;
41677;SDS011;27364;49.026;8.712;2023-04-19T04:05:52;17.52;;;12.90;;
41677;SDS011;27364;49.026;8.712;2023-04-19T04:08:17;17.73;;;13.05;;
41677;SDS011;27364;49.026;8.712;2023-04-19T04:10:43;16.70;;;12.95;;
41677;SDS011;27364;49.026;8.712;2023-04-19T04:13:08;15.93;;;12.40;;
41677;SDS011;27364;49.026;8.712;2023-04-19T04:15:34;15.68;;;12.80;;
41677;SDS011;27364;49.026;8.712;2023-04-19T04:17:59;15.63;;;12.70;;
41677;SDS011;27364;49.026;8.712;2023-04-19T04:20:25;15.40;;;12.38;;
41677;SDS011;27364;49.026;8.712;2023-04-19T04:22:50;15.30;;;12.32;;
41677;SDS011;27364;49.026;8.712;2023-04-19T04:25:16;15.95;;;12.43;;
41677;SDS011;27364;49.026;8.712;2023-04-19T04:27:42;16.67;;;13.10;;
41677;SDS011;27364;49.026;8.712;2023-04-19T04:30:11;14.02;;;11.77;;
41677;SDS011;27364;49.026;8.712;2023-04-19T04:32:37;16.95;;;12.80;;
41677;SDS011;27364;49.026;8.712;2023-04-19T04:35:05;16.27;;;13.20;;
41677;SDS011;27364;49.026;8.712;2023-04-19T04:37:31;15.63;;;12.50;;
41677;SDS011;27364;49.026;8.712;2023-04-19T04:40:01;14.82;;;12.20;;
41677;SDS011;27364;49.026;8.712;2023-04-19T04:42:30;16.25;;;12.30;;
41677;SDS011;27364;49.026;8.712;2023-04-19T04:44:56;16.02;;;12.00;;
41677;SDS011;27364;49.026;8.712;2023-04-19T04:47:22;14.98;;;12.25;;
41677;SDS011;27364;49.026;8.712;2023-04-19T04:49:48;15.30;;;12.77;;
41677;SDS011;27364;49.026;8.712;2023-04-19T04:52:14;18.98;;;12.80;;
41677;SDS011;27364;49.026;8.712;2023-04-19T04:54:40;14.45;;;12.07;;
41677;SDS011;27364;49.026;8.712;2023-04-19T04:57:05;15.80;;;12.43;;
41677;SDS011;27364;49.026;8.712;2023-04-19T04:59:32;14.85;;;11.93;;
41677;SDS011;27364;49.026;8.712;2023-04-19T05:01:57;16.45;;;12.32;;
41677;SDS011;27364;49.026;8.712;2023-04-19T05:04:23;15.60;;;12.13;;
41677;SDS011;27364;49.026;8.712;2023-04-19T05:06:49;17.75;;;13.23;;
41677;SDS011;27364;49.026;8.712;2023-04-19T05:09:14;17.30;;;13.23;;
41677;SDS011;27364;49.026;8.712;2023-04-19T05:11:40;15.45;;;12.35;;
41677;SDS011;27364;49.026;8.712;2023-04-19T05:14:05;15.50;;;12.85;;
41677;SDS011;27364;49.026;8.712;2023-04-19T05:16:31;16.38;;;13.00;;
41677;SDS011;27364;49.026;8.712;2023-04-19T05:18:57;16.90;;;13.07;;
41677;SDS011;27364;49.026;8.712;2023-04-19T05:21:22;15.45;;;12.50;;
41677;SDS011;27364;49.026;8.712;2023-04-19T05:23:48;17.45;;;13.57;;
41677;SDS011;27364;49.026;8.712;2023-04-19T05:26:14;17.35;;;13.65;;
41677;SDS011;27364;49.026;8.712;2023-04-19T05:28:40;15.25;;;12.30;;
41677;SDS011;27364;49.026;8.712;2023-04-19T05:31:07;16.08;;;13.20;;
41677;SDS011;27364;49.026;8.712;2023-04-19T05:33:32;16.33;;;13.02;;
41677;SDS011;27364;49.026;8.712;2023-04-19T05:35:58;15.45;;;12.70;;
41677;SDS011;27364;49.026;8.712;2023-04-19T05:38:24;16.13;;;13.02;;
41677;SDS011;27364;49.026;8.712;2023-04-19T05:40:49;14.68;;;12.25;;
41677;SDS011;27364;49.026;8.712;2023-04-19T05:43:15;15.93;;;12.30;;
41677;SDS011;27364;49.026;8.712;2023-04-19T05:45:40;16.98;;;13.15;;
41677;SDS011;27364;49.026;8.712;2023-04-19T05:48:06;15.43;;;12.35;;
41677;SDS011;27364;49.026;8.712;2023-04-19T05:50:32;16.35;;;12.75;;
41677;SDS011;27364;49.026;8.712;2023-04-19T05:52:58;14.55;;;12.27;;
41677;SDS011;27364;49.026;8.712;2023-04-19T05:55:24;15.05;;;12.27;;
41677;SDS011;27364;49.026;8.712;2023-04-19T05:57:49;16.02;;;12.93;;
41677;SDS011;27364;49.026;8.712;2023-04-19T06:00:15;14.55;;;11.52;;
41677;SDS011;27364;49.026;8.712;2023-04-19T06:02:41;17.58;;;12.43;;
41677;SDS011;27364;49.026;8.712;2023-04-19T06:05:08;12.95;;;11.18;;
41677;SDS011;27364;49.026;8.712;2023-04-19T06:07:34;13.93;;;11.27;;
41677;SDS011;27364;49.026;8.712;2023-04-19T06:10:00;13.55;;;11.35;;
41677;SDS011;27364;49.026;8.712;2023-04-19T06:12:25;14.52;;;11.98;;
41677;SDS011;27364;49.026;8.712;2023-04-19T06:14:51;15.57;;;12.32;;
41677;SDS011;27364;49.026;8.712;2023-04-19T06:17:17;14.02;;;11.43;;
41677;SDS011;27364;49.026;8.712;2023-04-19T06:19:47;15.95;;;11.52;;
41677;SDS011;27364;49.026;8.712;2023-04-19T06:22:13;15.00;;;11.27;;
41677;SDS011;27364;49.026;8.712;2023-04-19T06:24:38;15.13;;;10.95;;
41677;SDS011;27364;49.026;8.712;2023-04-19T06:27:04;19.15;;;11.43;;
41677;SDS011;27364;49.026;8.712;2023-04-19T06:29:29;14.88;;;11.63;;
41677;SDS011;27364;49.026;8.712;2023-04-19T06:31:55;14.30;;;11.02;;
41677;SDS011;27364;49.026;8.712;2023-04-19T06:34:21;20.38;;;10.95;;
41677;SDS011;27364;49.026;8.712;2023-04-19T06:36:46;15.60;;;10.02;;
41677;SDS011;27364;49.026;8.712;2023-04-19T06:39:12;13.73;;;10.63;;
41677;SDS011;27364;49.026;8.712;2023-04-19T06:41:38;14.40;;;10.95;;
41677;SDS011;27364;49.026;8.712;2023-04-19T06:44:04;12.80;;;10.23;;
41677;SDS011;27364;49.026;8.712;2023-04-19T06:46:29;14.13;;;10.45;;
41677;SDS011;27364;49.026;8.712;2023-04-19T06:48:55;14.30;;;10.48;;
41677;SDS011;27364;49.026;8.712;2023-04-19T06:51:20;15.18;;;10.98;;
41677;SDS011;27364;49.026;8.712;2023-04-19T06:53:46;13.82;;;10.50;;
41677;SDS011;27364;49.026;8.712;2023-04-19T06:56:13;14.25;;;10.35;;
41677;SDS011;27364;49.026;8.712;2023-04-19T06:58:38;14.35;;;11.05;;
41677;SDS011;27364;49.026;8.712;2023-04-19T07:01:04;13.98;;;10.07;;
41677;SDS011;27364;49.026;8.712;2023-04-19T07:03:30;12.85;;;10.50;;
41677;SDS011;27364;49.026;8.712;2023-04-19T07:05:56;13.88;;;10.30;;
41677;SDS011;27364;49.026;8.712;2023-04-19T07:08:22;14.20;;;10.57;;
41677;SDS011;27364;49.026;8.712;2023-04-19T07:10:48;14.68;;;10.57;;
41677;SDS011;27364;49.026;8.712;2023-04-19T07:13:13;13.38;;;10.43;;
41677;SDS011;27364;49.026;8.712;2023-04-19T07:15:39;14.98;;;10.25;;
41677;SDS011;27364;49.026;8.712;2023-04-19T07:18:04;13.35;;;10.82;;
41677;SDS011;27364;49.026;8.712;2023-04-19T07:20:30;12.85;;;10.18;;
41677;SDS011;27364;49.026;8.712;2023-04-19T07:22:56;11.70;;;9.57;;
41677;SDS011;27364;49.026;8.712;2023-04-19T07:25:22;15.10;;;10.10;;
41677;SDS011;27364;49.026;8.712;2023-04-19T07:27:48;12.77;;;10.23;;
41677;SDS011;27364;49.026;8.712;2023-04-19T07:30:13;12.98;;;10.13;;
41677;SDS011;27364;49.026;8.712;2023-04-19T07:32:39;13.50;;;10.55;;
41677;SDS011;27364;49.026;8.712;2023-04-19T07:35:05;12.10;;;9.93;;
41677;SDS011;27364;49.026;8.712;2023-04-19T07:37:31;14.82;;;10.40;;
41677;SDS011;27364;49.026;8.712;2023-04-19T07:39:56;12.98;;;9.82;;
41677;SDS011;27364;49.026;8.712;2023-04-19T07:42:22;11.85;;;9.85;;
41677;SDS011;27364;49.026;8.712;2023-04-19T07:44:48;11.75;;;9.80;;
41677;SDS011;27364;49.026;8.712;2023-04-19T07:47:14;12.80;;;9.73;;
41677;SDS011;27364;49.026;8.712;2023-04-19T07:49:39;13.00;;;10.25;;
41677;SDS011;27364;49.026;8.712;2023-04-19T07:52:08;12.15;;;9.88;;
41677;SDS011;27364;49.026;8.712;2023-04-19T07:54:33;12.88;;;10.13;;
41677;SDS011;27364;49.026;8.712;2023-04-19T07:56:59;13.27;;;10.35;;
41677;SDS011;27364;49.026;8.712;2023-04-19T07:59:26;12.13;;;9.85;;
41677;SDS011;27364;49.026;8.712;2023-04-19T08:01:51;11.48;;;9.30;;
41677;SDS011;27364;49.026;8.712;2023-04-19T08:04:17;13.10;;;9.52;;
41677;SDS011;27364;49.026;8.712;2023-04-19T08:06:43;11.10;;;8.75;;
41677;SDS011;27364;49.026;8.712;2023-04-19T08:09:09;11.43;;;9.35;;
41677;SDS011;27364;49.026;8.712;2023-04-19T08:11:35;12.68;;;9.13;;
41677;SDS011;27364;49.026;8.712;2023-04-19T08:14:00;12.90;;;9.65;;
41677;SDS011;27364;49.026;8.712;2023-04-19T08:16:26;13.20;;;9.50;;
41677;SDS011;27364;49.026;8.712;2023-04-19T08:18:53;10.77;;;9.13;;
41677;SDS011;27364;49.026;8.712;2023-04-19T08:21:19;13.13;;;9.95;;
41677;SDS011;27364;49.026;8.712;2023-04-19T08:23:45;12.02;;;8.80;;
41677;SDS011;27364;49.026;8.712;2023-04-19T08:26:12;12.52;;;9.68;;
41677;SDS011;27364;49.026;8.712;2023-04-19T08:28:37;11.90;;;9.75;;
41677;SDS011;27364;49.026;8.712;2023-04-19T08:31:06;12.15;;;9.77;;
41677;SDS011;27364;49.026;8.712;2023-04-19T08:33:32;12.10;;;9.88;;
41677;SDS011;27364;49.026;8.712;2023-04-19T08:35:58;12.18;;;9.70;;
41677;SDS011;27364;49.026;8.712;2023-04-19T08:38:23;12.30;;;9.55;;
41677;SDS011;27364;49.026;8.712;2023-04-19T08:40:50;11.82;;;9.90;;
41677;SDS011;27364;49.026;8.712;2023-04-19T08:43:18;12.93;;;10.75;;
41677;SDS011;27364;49.026;8.712;2023-04-19T08:45:47;13.50;;;10.05;;
41677;SDS011;27364;49.026;8.712;2023-04-19T08:48:14;12.30;;;10.35;;
41677;SDS011;27364;49.026;8.712;2023-04-19T08:50:40;12.23;;;9.60;;
41677;SDS011;27364;49.026;8.712;2023-04-19T08:53:07;12.57;;;10.38;;
41677;SDS011;27364;49.026;8.712;2023-04-19T08:55:34;14.73;;;10.15;;
41677;SDS011;27364;49.026;8.712;2023-04-19T08:58:02;13.75;;;10.40;;
41677;SDS011;27364;49.026;8.712;2023-04-19T09:00:28;13.65;;;11.13;;
41677;SDS011;27364;49.026;8.712;2023-04-19T09:02:54;13.38;;;10.55;;
41677;SDS011;27364;49.026;8.712;2023-04-19T09:05:20;14.10;;;10.43;;
41677;SDS011;27364;49.026;8.712;2023-04-19T09:07:46;12.98;;;10.38;;
41677;SDS011;27364;49.026;8.712;2023-04-19T09:10:13;12.18;;;9.50;;
41677;SDS011;27364;49.026;8.712;2023-04-19T09:12:42;14.20;;;10.90;;
41677;SDS011;27364;49.026;8.712;2023-04-19T09:15:08;12.05;;;10.05;;
41677;SDS011;27364;49.026;8.712;2023-04-19T09:17:35;12.88;;;10.88;;
41677;SDS011;27364;49.026;8.712;2023-04-19T09:20:01;15.15;;;10.68;;
41677;SDS011;27364;49.026;8.712;2023-04-19T09:22:28;14.52;;;10.82;;
41677;SDS011;27364;49.026;8.712;2023-04-19T09:24:54;11.82;;;10.23;;
41677;SDS011;27364;49.026;8.712;2023-04-19T09:27:30;13.80;;;10.80;;
41677;SDS011;27364;49.026;8.712;2023-04-19T09:29:58;15.15;;;10.98;;
41677;SDS011;27364;49.026;8.712;2023-04-19T09:32:25;12.65;;;10.23;;
41677;SDS011;27364;49.026;8.712;2023-04-19T09:34:54;12.73;;;10.38;;
41677;SDS011;27364;49.026;8.712;2023-04-19T09:37:22;12.07;;;10.43;;
41677;SDS011;27364;49.026;8.712;2023-04-19T09:39:48;13.68;;;10.82;;
41677;SDS011;27364;49.026;8.712;2023-04-19T09:42:14;13.10;;;10.25;;
41677;SDS011;27364;49.026;8.712;2023-04-19T09:44:41;12.95;;;10.20;;
41677;SDS011;27364;49.026;8.712;2023-04-19T09:47:25;12.07;;;10.63;;
41677;SDS011;27364;49.026;8.712;2023-04-19T09:50:09;12.02;;;9.80;;
41677;SDS011;27364;49.026;8.712;2023-04-19T09:52:35;14.10;;;10.50;;
41677;SDS011;27364;49.026;8.712;2023-04-19T09:55:03;11.65;;;9.23;;
41677;SDS011;27364;49.026;8.712;2023-04-19T09:59:55;10.52;;;8.60;;
41677;SDS011;27364;49.026;8.712;2023-04-19T10:02:23;8.85;;;7.60;;
41677;SDS011;27364;49.026;8.712;2023-04-19T10:04:52;9.82;;;8.50;;
41677;SDS011;27364;49.026;8.712;2023-04-19T10:07:21;9.07;;;7.68;;
41677;SDS011;27364;49.026;8.712;2023-04-19T10:09:47;9.20;;;7.50;;
41677;SDS011;27364;49.026;8.712;2023-04-19T10:12:14;8.30;;;6.88;;
41677;SDS011;27364;49.026;8.712;2023-04-19T10:14:40;9.48;;;7.95;;
41677;SDS011;27364;49.026;8.712;2023-04-19T10:17:07;9.55;;;7.88;;
41677;SDS011;27364;49.026;8.712;2023-04-19T10:19:33;8.80;;;7.30;;
41677;SDS011;27364;49.026;8.712;2023-04-19T10:21:59;11.65;;;7.60;;
41677;SDS011;27364;49.026;8.712;2023-04-19T10:24:29;10.27;;;7.57;;
41677;SDS011;27364;49.026;8.712;2023-04-19T10:27:10;9.38;;;7.43;;
41677;SDS011;27364;49.026;8.712;2023-04-19T10:29:56;9.85;;;8.15;;
41677;SDS011;27364;49.026;8.712;2023-04-19T10:32:40;10.75;;;7.88;;
41677;SDS011;27364;49.026;8.712;2023-04-19T10:35:07;11.02;;;8.02;;
41677;SDS011;27364;49.026;8.712;2023-04-19T10:37:34;9.60;;;8.02;;
41677;SDS011;27364;49.026;8.712;2023-04-19T10:40:04;9.68;;;8.15;;
41677;SDS011;27364;49.026;8.712;2023-04-19T10:45:34;10.27;;;8.13;;
41677;SDS011;27364;49.026;8.712;2023-04-19T10:48:01;10.95;;;8.68;;
41677;SDS011;27364;49.026;8.712;2023-04-19T10:52:53;11.80;;;8.63;;
41677;SDS011;27364;49.026;8.712;2023-04-19T10:55:19;11.40;;;8.38;;
41677;SDS011;27364;49.026;8.712;2023-04-19T10:58:01;11.13;;;8.52;;
41677;SDS011;27364;49.026;8.712;2023-04-19T11:00:31;9.20;;;7.40;;
41677;SDS011;27364;49.026;8.712;2023-04-19T11:06:16;9.93;;;8.55;;
41677;SDS011;27364;49.026;8.712;2023-04-19T11:08:46;11.15;;;9.05;;
41677;SDS011;27364;49.026;8.712;2023-04-19T11:11:12;10.55;;;8.65;;
41677;SDS011;27364;49.026;8.712;2023-04-19T11:13:40;10.63;;;9.02;;
41677;SDS011;27364;49.026;8.712;2023-04-19T11:16:07;11.60;;;9.65;;
41677;SDS011;27364;49.026;8.712;2023-04-19T11:18:33;11.73;;;9.07;;
41677;SDS011;27364;49.026;8.712;2023-04-19T11:20:59;10.35;;;8.85;;
41677;SDS011;27364;49.026;8.712;2023-04-19T11:23:25;12.18;;;9.27;;
41677;SDS011;27364;49.026;8.712;2023-04-19T11:25:51;11.80;;;9.63;;
41677;SDS011;27364;49.026;8.712;2023-04-19T11:28:17;11.60;;;9.30;;
41677;SDS011;27364;49.026;8.712;2023-04-19T11:30:43;15.75;;;12.43;;
41677;SDS011;27364;49.026;8.712;2023-04-19T11:33:09;12.02;;;9.73;;
41677;SDS011;27364;49.026;8.712;2023-04-19T11:35:36;10.75;;;8.77;;
41677;SDS011;27364;49.026;8.712;2023-04-19T11:38:02;11.90;;;9.27;;
41677;SDS011;27364;49.026;8.712;2023-04-19T11:40:31;10.55;;;8.45;;
41677;SDS011;27364;49.026;8.712;2023-04-19T11:42:58;11.20;;;8.68;;
41677;SDS011;27364;49.026;8.712;2023-04-19T11:45:29;10.27;;;8.43;;
41677;SDS011;27364;49.026;8.712;2023-04-19T11:47:56;10.98;;;8.35;;
41677;SDS011;27364;49.026;8.712;2023-04-19T11:50:29;9.48;;;8.48;;
41677;SDS011;27364;49.026;8.712;2023-04-19T11:52:55;9.82;;;8.07;;
41677;SDS011;27364;49.026;8.712;2023-04-19T11:55:21;13.50;;;8.93;;
41677;SDS011;27364;49.026;8.712;2023-04-19T11:57:47;12.80;;;9.05;;
41677;SDS011;27364;49.026;8.712;2023-04-19T12:00:13;11.70;;;9.27;;
41677;SDS011;27364;49.026;8.712;2023-04-19T12:02:39;10.82;;;8.57;;
41677;SDS011;27364;49.026;8.712;2023-04-19T12:07:36;12.15;;;9.65;;
41677;SDS011;27364;49.026;8.712;2023-04-19T12:10:08;11.52;;;9.65;;
41677;SDS011;27364;49.026;8.712;2023-04-19T12:12:37;11.48;;;9.23;;
41677;SDS011;27364;49.026;8.712;2023-04-19T12:15:04;11.65;;;9.63;;
41677;SDS011;27364;49.026;8.712;2023-04-19T12:17:30;12.97;;;10.20;;
41677;SDS011;27364;49.026;8.712;2023-04-19T12:19:56;14.07;;;10.75;;
41677;SDS011;27364;49.026;8.712;2023-04-19T12:22:21;12.77;;;10.65;;
41677;SDS011;27364;49.026;8.712;2023-04-19T12:24:50;15.50;;;11.23;;
41677;SDS011;27364;49.026;8.712;2023-04-19T12:27:17;13.60;;;11.40;;
41677;SDS011;27364;49.026;8.712;2023-04-19T12:29:42;13.15;;;11.60;;
41677;SDS011;27364;49.026;8.712;2023-04-19T12:32:09;13.15;;;11.50;;
41677;SDS011;27364;49.026;8.712;2023-04-19T12:34:35;15.63;;;11.60;;
41677;SDS011;27364;49.026;8.712;2023-04-19T12:37:00;14.52;;;12.10;;
41677;SDS011;27364;49.026;8.712;2023-04-19T12:39:28;15.65;;;12.45;;
41677;SDS011;27364;49.026;8.712;2023-04-19T12:41:54;18.20;;;12.18;;
41677;SDS011;27364;49.026;8.712;2023-04-19T12:44:20;14.13;;;11.80;;
41677;SDS011;27364;49.026;8.712;2023-04-19T12:46:46;14.57;;;12.10;;
41677;SDS011;27364;49.026;8.712;2023-04-19T12:49:11;15.95;;;12.32;;
41677;SDS011;27364;49.026;8.712;2023-04-19T12:51:37;15.55;;;11.95;;
41677;SDS011;27364;49.026;8.712;2023-04-19T12:54:02;14.75;;;11.48;;
41677;SDS011;27364;49.026;8.712;2023-04-19T12:56:28;17.90;;;12.25;;
41677;SDS011;27364;49.026;8.712;2023-04-19T12:58:53;15.68;;;11.27;;
41677;SDS011;27364;49.026;8.712;2023-04-19T13:01:19;16.30;;;12.00;;
41677;SDS011;27364;49.026;8.712;2023-04-19T13:03:44;15.93;;;12.18;;
41677;SDS011;27364;49.026;8.712;2023-04-19T13:06:10;15.15;;;11.32;;
41677;SDS011;27364;49.026;8.712;2023-04-19T13:08:40;15.68;;;11.90;;
41677;SDS011;27364;49.026;8.712;2023-04-19T13:11:06;15.98;;;11.68;;
41677;SDS011;27364;49.026;8.712;2023-04-19T13:13:31;16.10;;;11.48;;
41677;SDS011;27364;49.026;8.712;2023-04-19T13:15:58;15.13;;;12.18;;
41677;SDS011;27364;49.026;8.712;2023-04-19T13:18:23;15.43;;;12.13;;
41677;SDS011;27364;49.026;8.712;2023-04-19T13:20:50;13.80;;;11.38;;
41677;SDS011;27364;49.026;8.712;2023-04-19T13:23:17;14.95;;;11.55;;
41677;SDS011;27364;49.026;8.712;2023-04-19T13:25:43;17.65;;;11.32;;
41677;SDS011;27364;49.026;8.712;2023-04-19T13:28:08;14.55;;;11.23;;
41677;SDS011;27364;49.026;8.712;2023-04-19T13:30:34;13.93;;;11.02;;
41677;SDS011;27364;49.026;8.712;2023-04-19T13:32:59;14.55;;;10.50;;
41677;SDS011;27364;49.026;8.712;2023-04-19T13:35:25;14.05;;;11.30;;
41677;SDS011;27364;49.026;8.712;2023-04-19T13:37:50;14.02;;;11.15;;
41677;SDS011;27364;49.026;8.712;2023-04-19T13:40:16;13.98;;;10.60;;
41677;SDS011;27364;49.026;8.712;2023-04-19T13:42:42;12.75;;;11.02;;
41677;SDS011;27364;49.026;8.712;2023-04-19T13:45:08;15.40;;;11.48;;
41677;SDS011;27364;49.026;8.712;2023-04-19T13:47:33;16.73;;;11.95;;
41677;SDS011;27364;49.026;8.712;2023-04-19T13:49:59;14.38;;;11.48;;
41677;SDS011;27364;49.026;8.712;2023-04-19T13:52:25;15.45;;;12.07;;
41677;SDS011;27364;49.026;8.712;2023-04-19T13:54:50;17.08;;;12.85;;
41677;SDS011;27364;49.026;8.712;2023-04-19T13:57:16;15.20;;;12.13;;
41677;SDS011;27364;49.026;8.712;2023-04-19T13:59:41;13.70;;;10.63;;
41677;SDS011;27364;49.026;8.712;2023-04-19T14:02:07;13.30;;;10.43;;
41677;SDS011;27364;49.026;8.712;2023-04-19T14:04:32;13.07;;;10.23;;
41677;SDS011;27364;49.026;8.712;2023-04-19T14:06:58;13.65;;;10.73;;
41677;SDS011;27364;49.026;8.712;2023-04-19T14:09:23;12.40;;;10.60;;
41677;SDS011;27364;49.026;8.712;2023-04-19T14:11:49;14.10;;;10.82;;
41677;SDS011;27364;49.026;8.712;2023-04-19T14:14:15;13.77;;;10.38;;
41677;SDS011;27364;49.026;8.712;2023-04-19T14:16:41;13.40;;;10.38;;
41677;SDS011;27364;49.026;8.712;2023-04-19T14:19:06;13.35;;;10.95;;
41677;SDS011;27364;49.026;8.712;2023-04-19T14:21:32;11.93;;;9.93;;
41677;SDS011;27364;49.026;8.712;2023-04-19T14:23:57;12.80;;;9.93;;
41677;SDS011;27364;49.026;8.712;2023-04-19T14:26:23;12.68;;;10.43;;
41677;SDS011;27364;49.026;8.712;2023-04-19T14:28:49;14.38;;;11.18;;
41677;SDS011;27364;49.026;8.712;2023-04-19T14:31:14;11.05;;;9.55;;
41677;SDS011;27364;49.026;8.712;2023-04-19T14:33:40;11.35;;;9.30;;